sensor_id;sensor_type;location;lat;lon;timestamp;P1;durP1;ratioP1;P2;durP2;ratioP2
62687;SDS011;48752;51.056;17.056;2023-06-22T00:00:13;16.85;;;13.40;;
62687;SDS011;48752;51.056;17.056;2023-06-22T00:02:40;16.63;;;14.00;;
62687;SDS011;48752;51.056;17.056;2023-06-22T00:05:06;16.27;;;13.52;;
62687;SDS011;48752;51.056;17.056;2023-06-22T00:07:32;14.63;;;12.82;;
62687;SDS011;48752;51.056;17.056;2023-06-22T00:10:00;17.40;;;15.13;;
62687;SDS011;48752;51.056;17.056;2023-06-22T00:12:26;15.82;;;13.20;;
62687;SDS011;48752;51.056;17.056;2023-06-22T00:14:53;14.65;;;13.07;;
62687;SDS011;48752;51.056;17.056;2023-06-22T00:17:18;15.70;;;13.40;;
62687;SDS011;48752;51.056;17.056;2023-06-22T00:19:43;15.75;;;13.13;;
62687;SDS011;48752;51.056;17.056;2023-06-22T00:22:12;17.08;;;14.05;;
62687;SDS011;48752;51.056;17.056;2023-06-22T00:24:37;16.90;;;13.97;;
62687;SDS011;48752;51.056;17.056;2023-06-22T00:27:03;14.50;;;12.97;;
62687;SDS011;48752;51.056;17.056;2023-06-22T00:29:31;16.25;;;13.27;;
62687;SDS011;48752;51.056;17.056;2023-06-22T00:31:57;17.63;;;13.27;;
62687;SDS011;48752;51.056;17.056;2023-06-22T00:34:23;15.35;;;13.65;;
62687;SDS011;48752;51.056;17.056;2023-06-22T00:36:50;14.38;;;12.63;;
62687;SDS011;48752;51.056;17.056;2023-06-22T00:39:17;16.15;;;13.95;;
62687;SDS011;48752;51.056;17.056;2023-06-22T00:41:42;17.20;;;13.80;;
62687;SDS011;48752;51.056;17.056;2023-06-22T00:44:09;17.33;;;13.13;;
62687;SDS011;48752;51.056;17.056;2023-06-22T00:46:35;17.17;;;13.90;;
62687;SDS011;48752;51.056;17.056;2023-06-22T00:49:00;16.33;;;13.25;;
62687;SDS011;48752;51.056;17.056;2023-06-22T00:51:37;16.60;;;13.88;;
62687;SDS011;48752;51.056;17.056;2023-06-22T00:54:13;19.67;;;14.25;;
62687;SDS011;48752;51.056;17.056;2023-06-22T00:56:40;18.40;;;13.77;;
62687;SDS011;48752;51.056;17.056;2023-06-22T00:59:11;19.88;;;13.95;;
62687;SDS011;48752;51.056;17.056;2023-06-22T01:01:46;16.00;;;14.30;;
62687;SDS011;48752;51.056;17.056;2023-06-22T01:04:11;18.33;;;15.13;;
62687;SDS011;48752;51.056;17.056;2023-06-22T01:06:38;16.63;;;14.27;;
62687;SDS011;48752;51.056;17.056;2023-06-22T01:09:08;16.63;;;14.45;;
62687;SDS011;48752;51.056;17.056;2023-06-22T01:11:49;16.52;;;14.35;;
62687;SDS011;48752;51.056;17.056;2023-06-22T01:14:17;18.85;;;14.65;;
62687;SDS011;48752;51.056;17.056;2023-06-22T01:16:45;18.05;;;16.15;;
62687;SDS011;48752;51.056;17.056;2023-06-22T01:21:55;19.73;;;15.20;;
62687;SDS011;48752;51.056;17.056;2023-06-22T01:24:26;17.92;;;15.98;;
62687;SDS011;48752;51.056;17.056;2023-06-22T01:29:27;19.33;;;15.13;;
62687;SDS011;48752;51.056;17.056;2023-06-22T01:31:55;21.02;;;16.42;;
62687;SDS011;48752;51.056;17.056;2023-06-22T01:34:21;18.13;;;14.98;;
62687;SDS011;48752;51.056;17.056;2023-06-22T01:36:47;21.05;;;16.65;;
62687;SDS011;48752;51.056;17.056;2023-06-22T01:39:13;19.00;;;16.55;;
62687;SDS011;48752;51.056;17.056;2023-06-22T01:41:40;22.90;;;17.15;;
62687;SDS011;48752;51.056;17.056;2023-06-22T01:44:08;23.02;;;17.45;;
62687;SDS011;48752;51.056;17.056;2023-06-22T01:46:38;20.15;;;16.65;;
62687;SDS011;48752;51.056;17.056;2023-06-22T01:49:11;20.55;;;16.17;;
62687;SDS011;48752;51.056;17.056;2023-06-22T01:51:45;21.45;;;16.90;;
62687;SDS011;48752;51.056;17.056;2023-06-22T01:54:12;18.83;;;16.75;;
62687;SDS011;48752;51.056;17.056;2023-06-22T01:56:37;21.13;;;17.55;;
62687;SDS011;48752;51.056;17.056;2023-06-22T02:01:36;19.90;;;16.27;;
62687;SDS011;48752;51.056;17.056;2023-06-22T02:04:33;19.45;;;16.33;;
62687;SDS011;48752;51.056;17.056;2023-06-22T02:07:00;22.63;;;17.00;;
62687;SDS011;48752;51.056;17.056;2023-06-22T02:09:36;20.27;;;17.65;;
62687;SDS011;48752;51.056;17.056;2023-06-22T02:12:03;21.40;;;17.25;;
62687;SDS011;48752;51.056;17.056;2023-06-22T02:14:29;22.55;;;16.70;;
62687;SDS011;48752;51.056;17.056;2023-06-22T02:16:55;22.52;;;16.67;;
62687;SDS011;48752;51.056;17.056;2023-06-22T02:19:25;22.05;;;16.58;;
62687;SDS011;48752;51.056;17.056;2023-06-22T02:21:53;21.73;;;16.38;;
62687;SDS011;48752;51.056;17.056;2023-06-22T02:24:18;19.98;;;17.63;;
62687;SDS011;48752;51.056;17.056;2023-06-22T02:26:44;18.00;;;15.60;;
62687;SDS011;48752;51.056;17.056;2023-06-22T02:29:17;19.27;;;16.55;;
62687;SDS011;48752;51.056;17.056;2023-06-22T02:31:43;23.02;;;17.17;;
62687;SDS011;48752;51.056;17.056;2023-06-22T02:34:09;22.15;;;16.63;;
62687;SDS011;48752;51.056;17.056;2023-06-22T02:36:35;23.02;;;17.58;;
62687;SDS011;48752;51.056;17.056;2023-06-22T02:39:02;21.30;;;17.40;;
62687;SDS011;48752;51.056;17.056;2023-06-22T02:41:29;20.65;;;17.33;;
62687;SDS011;48752;51.056;17.056;2023-06-22T02:43:55;24.98;;;17.77;;
62687;SDS011;48752;51.056;17.056;2023-06-22T02:46:23;21.50;;;16.75;;
62687;SDS011;48752;51.056;17.056;2023-06-22T02:48:48;19.58;;;16.88;;
62687;SDS011;48752;51.056;17.056;2023-06-22T02:51:16;21.92;;;18.45;;
62687;SDS011;48752;51.056;17.056;2023-06-22T02:53:43;22.08;;;17.50;;
62687;SDS011;48752;51.056;17.056;2023-06-22T02:56:12;20.55;;;17.13;;
62687;SDS011;48752;51.056;17.056;2023-06-22T02:58:37;21.05;;;17.30;;
62687;SDS011;48752;51.056;17.056;2023-06-22T03:01:11;20.55;;;17.85;;
62687;SDS011;48752;51.056;17.056;2023-06-22T03:03:52;20.20;;;17.65;;
62687;SDS011;48752;51.056;17.056;2023-06-22T03:06:18;21.30;;;17.25;;
62687;SDS011;48752;51.056;17.056;2023-06-22T03:08:50;20.98;;;18.02;;
62687;SDS011;48752;51.056;17.056;2023-06-22T03:11:16;22.15;;;17.58;;
62687;SDS011;48752;51.056;17.056;2023-06-22T03:13:43;20.83;;;17.88;;
62687;SDS011;48752;51.056;17.056;2023-06-22T03:16:11;26.95;;;17.88;;
62687;SDS011;48752;51.056;17.056;2023-06-22T03:18:37;23.52;;;17.80;;
62687;SDS011;48752;51.056;17.056;2023-06-22T03:21:02;22.57;;;18.27;;
62687;SDS011;48752;51.056;17.056;2023-06-22T03:23:28;21.58;;;18.55;;
62687;SDS011;48752;51.056;17.056;2023-06-22T03:25:54;24.73;;;19.23;;
62687;SDS011;48752;51.056;17.056;2023-06-22T03:28:21;20.73;;;18.08;;
62687;SDS011;48752;51.056;17.056;2023-06-22T03:30:49;20.17;;;18.08;;
62687;SDS011;48752;51.056;17.056;2023-06-22T03:33:15;24.08;;;18.42;;
62687;SDS011;48752;51.056;17.056;2023-06-22T03:35:40;24.00;;;17.38;;
62687;SDS011;48752;51.056;17.056;2023-06-22T03:38:06;20.73;;;16.83;;
62687;SDS011;48752;51.056;17.056;2023-06-22T03:40:32;21.85;;;17.20;;
62687;SDS011;48752;51.056;17.056;2023-06-22T03:42:57;22.77;;;16.83;;
62687;SDS011;48752;51.056;17.056;2023-06-22T03:45:24;20.50;;;17.63;;
62687;SDS011;48752;51.056;17.056;2023-06-22T03:47:49;25.73;;;17.60;;
62687;SDS011;48752;51.056;17.056;2023-06-22T03:50:16;20.03;;;15.87;;
62687;SDS011;48752;51.056;17.056;2023-06-22T03:52:42;24.48;;;17.80;;
62687;SDS011;48752;51.056;17.056;2023-06-22T03:55:08;20.55;;;17.23;;
62687;SDS011;48752;51.056;17.056;2023-06-22T03:57:34;18.85;;;16.83;;
62687;SDS011;48752;51.056;17.056;2023-06-22T04:00:02;21.52;;;17.45;;
62687;SDS011;48752;51.056;17.056;2023-06-22T04:02:32;22.08;;;18.58;;
62687;SDS011;48752;51.056;17.056;2023-06-22T04:04:58;23.23;;;18.70;;
62687;SDS011;48752;51.056;17.056;2023-06-22T04:07:32;21.75;;;18.13;;
62687;SDS011;48752;51.056;17.056;2023-06-22T04:09:58;20.00;;;17.85;;
62687;SDS011;48752;51.056;17.056;2023-06-22T04:12:24;22.80;;;16.83;;
62687;SDS011;48752;51.056;17.056;2023-06-22T04:14:50;26.48;;;18.42;;
62687;SDS011;48752;51.056;17.056;2023-06-22T04:17:16;21.63;;;17.40;;
62687;SDS011;48752;51.056;17.056;2023-06-22T04:19:43;20.70;;;17.65;;
62687;SDS011;48752;51.056;17.056;2023-06-22T04:22:09;24.52;;;18.00;;
62687;SDS011;48752;51.056;17.056;2023-06-22T04:24:36;21.45;;;17.33;;
62687;SDS011;48752;51.056;17.056;2023-06-22T04:27:06;23.98;;;18.60;;
62687;SDS011;48752;51.056;17.056;2023-06-22T04:29:34;22.58;;;18.48;;
62687;SDS011;48752;51.056;17.056;2023-06-22T04:32:00;22.15;;;16.77;;
62687;SDS011;48752;51.056;17.056;2023-06-22T04:34:32;21.10;;;17.98;;
62687;SDS011;48752;51.056;17.056;2023-06-22T04:37:18;20.45;;;17.30;;
62687;SDS011;48752;51.056;17.056;2023-06-22T04:39:44;21.88;;;18.90;;
62687;SDS011;48752;51.056;17.056;2023-06-22T04:42:10;22.80;;;18.55;;
62687;SDS011;48752;51.056;17.056;2023-06-22T04:44:36;25.27;;;18.70;;
62687;SDS011;48752;51.056;17.056;2023-06-22T04:47:02;21.75;;;17.27;;
62687;SDS011;48752;51.056;17.056;2023-06-22T04:49:30;25.90;;;18.77;;
62687;SDS011;48752;51.056;17.056;2023-06-22T04:51:59;18.95;;;16.90;;
62687;SDS011;48752;51.056;17.056;2023-06-22T04:54:24;24.92;;;18.48;;
62687;SDS011;48752;51.056;17.056;2023-06-22T04:56:52;25.50;;;19.85;;
62687;SDS011;48752;51.056;17.056;2023-06-22T04:59:25;24.00;;;20.25;;
62687;SDS011;48752;51.056;17.056;2023-06-22T05:01:57;29.38;;;19.70;;
62687;SDS011;48752;51.056;17.056;2023-06-22T05:04:24;21.85;;;19.10;;
62687;SDS011;48752;51.056;17.056;2023-06-22T05:06:50;25.13;;;19.23;;
62687;SDS011;48752;51.056;17.056;2023-06-22T05:09:17;23.40;;;19.00;;
62687;SDS011;48752;51.056;17.056;2023-06-22T05:11:43;25.45;;;20.33;;
62687;SDS011;48752;51.056;17.056;2023-06-22T05:14:09;25.13;;;19.80;;
62687;SDS011;48752;51.056;17.056;2023-06-22T05:16:42;23.35;;;20.00;;
62687;SDS011;48752;51.056;17.056;2023-06-22T05:19:10;22.90;;;19.55;;
62687;SDS011;48752;51.056;17.056;2023-06-22T05:21:38;26.75;;;21.02;;
62687;SDS011;48752;51.056;17.056;2023-06-22T05:24:05;25.50;;;20.17;;
62687;SDS011;48752;51.056;17.056;2023-06-22T05:26:33;26.00;;;20.83;;
62687;SDS011;48752;51.056;17.056;2023-06-22T05:29:00;21.95;;;18.63;;
62687;SDS011;48752;51.056;17.056;2023-06-22T05:31:28;24.85;;;18.50;;
62687;SDS011;48752;51.056;17.056;2023-06-22T05:33:54;22.77;;;18.95;;
62687;SDS011;48752;51.056;17.056;2023-06-22T05:36:20;20.20;;;16.35;;
62687;SDS011;48752;51.056;17.056;2023-06-22T05:38:47;18.45;;;15.90;;
62687;SDS011;48752;51.056;17.056;2023-06-22T05:41:18;17.42;;;15.32;;
62687;SDS011;48752;51.056;17.056;2023-06-22T05:43:44;18.00;;;15.00;;
62687;SDS011;48752;51.056;17.056;2023-06-22T05:46:18;16.87;;;13.80;;
62687;SDS011;48752;51.056;17.056;2023-06-22T05:48:44;18.00;;;14.32;;
62687;SDS011;48752;51.056;17.056;2023-06-22T05:51:15;17.92;;;13.25;;
62687;SDS011;48752;51.056;17.056;2023-06-22T05:53:42;13.77;;;12.38;;
62687;SDS011;48752;51.056;17.056;2023-06-22T05:56:07;15.33;;;11.77;;
62687;SDS011;48752;51.056;17.056;2023-06-22T05:58:48;13.68;;;12.25;;
62687;SDS011;48752;51.056;17.056;2023-06-22T06:01:19;12.85;;;11.55;;
62687;SDS011;48752;51.056;17.056;2023-06-22T06:03:46;14.07;;;11.52;;
62687;SDS011;48752;51.056;17.056;2023-06-22T06:06:20;13.63;;;11.93;;
62687;SDS011;48752;51.056;17.056;2023-06-22T06:08:54;12.80;;;11.50;;
62687;SDS011;48752;51.056;17.056;2023-06-22T06:11:21;12.77;;;11.48;;
62687;SDS011;48752;51.056;17.056;2023-06-22T06:13:46;12.45;;;11.25;;
62687;SDS011;48752;51.056;17.056;2023-06-22T06:16:11;12.57;;;11.13;;
62687;SDS011;48752;51.056;17.056;2023-06-22T06:18:37;12.03;;;10.17;;
62687;SDS011;48752;51.056;17.056;2023-06-22T06:21:10;12.85;;;11.25;;
62687;SDS011;48752;51.056;17.056;2023-06-22T06:23:36;12.67;;;11.37;;
62687;SDS011;48752;51.056;17.056;2023-06-22T06:26:03;11.55;;;10.50;;
62687;SDS011;48752;51.056;17.056;2023-06-22T06:28:32;11.23;;;10.23;;
62687;SDS011;48752;51.056;17.056;2023-06-22T06:30:59;12.38;;;10.02;;
62687;SDS011;48752;51.056;17.056;2023-06-22T06:33:26;10.65;;;9.55;;
62687;SDS011;48752;51.056;17.056;2023-06-22T06:35:52;12.95;;;10.55;;
62687;SDS011;48752;51.056;17.056;2023-06-22T06:38:18;11.95;;;10.65;;
62687;SDS011;48752;51.056;17.056;2023-06-22T06:40:44;10.77;;;9.73;;
62687;SDS011;48752;51.056;17.056;2023-06-22T06:43:11;10.27;;;9.38;;
62687;SDS011;48752;51.056;17.056;2023-06-22T06:45:37;11.48;;;10.27;;
62687;SDS011;48752;51.056;17.056;2023-06-22T06:48:03;9.63;;;8.73;;
62687;SDS011;48752;51.056;17.056;2023-06-22T06:50:29;12.25;;;11.02;;
62687;SDS011;48752;51.056;17.056;2023-06-22T06:52:55;15.90;;;10.68;;
62687;SDS011;48752;51.056;17.056;2023-06-22T06:55:24;13.13;;;10.27;;
62687;SDS011;48752;51.056;17.056;2023-06-22T06:57:52;11.75;;;10.65;;
62687;SDS011;48752;51.056;17.056;2023-06-22T07:00:38;11.25;;;9.15;;
62687;SDS011;48752;51.056;17.056;2023-06-22T07:03:04;14.60;;;9.65;;
62687;SDS011;48752;51.056;17.056;2023-06-22T07:05:32;10.82;;;9.82;;
62687;SDS011;48752;51.056;17.056;2023-06-22T07:07:59;12.18;;;9.13;;
62687;SDS011;48752;51.056;17.056;2023-06-22T07:10:24;10.48;;;9.40;;
62687;SDS011;48752;51.056;17.056;2023-06-22T07:12:50;11.10;;;9.35;;
62687;SDS011;48752;51.056;17.056;2023-06-22T07:15:16;10.23;;;9.15;;
62687;SDS011;48752;51.056;17.056;2023-06-22T07:17:44;12.23;;;10.15;;
62687;SDS011;48752;51.056;17.056;2023-06-22T07:20:09;9.65;;;8.85;;
62687;SDS011;48752;51.056;17.056;2023-06-22T07:22:38;9.43;;;8.57;;
62687;SDS011;48752;51.056;17.056;2023-06-22T07:25:05;10.98;;;9.98;;
62687;SDS011;48752;51.056;17.056;2023-06-22T07:27:38;9.77;;;8.98;;
62687;SDS011;48752;51.056;17.056;2023-06-22T07:30:08;9.90;;;9.05;;
62687;SDS011;48752;51.056;17.056;2023-06-22T07:32:35;11.80;;;10.80;;
62687;SDS011;48752;51.056;17.056;2023-06-22T07:35:01;10.95;;;9.85;;
62687;SDS011;48752;51.056;17.056;2023-06-22T07:37:27;11.65;;;10.60;;
62687;SDS011;48752;51.056;17.056;2023-06-22T07:39:54;11.43;;;10.25;;
62687;SDS011;48752;51.056;17.056;2023-06-22T07:42:24;10.45;;;9.45;;
62687;SDS011;48752;51.056;17.056;2023-06-22T07:44:50;11.68;;;9.75;;
62687;SDS011;48752;51.056;17.056;2023-06-22T07:47:16;11.15;;;10.05;;
62687;SDS011;48752;51.056;17.056;2023-06-22T07:49:45;11.77;;;10.38;;
62687;SDS011;48752;51.056;17.056;2023-06-22T07:52:11;12.02;;;10.93;;
62687;SDS011;48752;51.056;17.056;2023-06-22T07:54:36;11.55;;;10.55;;
62687;SDS011;48752;51.056;17.056;2023-06-22T07:57:02;11.85;;;10.57;;
62687;SDS011;48752;51.056;17.056;2023-06-22T07:59:27;11.95;;;10.85;;
62687;SDS011;48752;51.056;17.056;2023-06-22T08:01:53;10.93;;;9.97;;
62687;SDS011;48752;51.056;17.056;2023-06-22T08:04:18;12.32;;;10.75;;
62687;SDS011;48752;51.056;17.056;2023-06-22T08:06:43;10.90;;;10.00;;
62687;SDS011;48752;51.056;17.056;2023-06-22T08:09:10;12.60;;;11.32;;
62687;SDS011;48752;51.056;17.056;2023-06-22T08:11:36;11.00;;;9.80;;
62687;SDS011;48752;51.056;17.056;2023-06-22T08:14:01;11.47;;;10.43;;
62687;SDS011;48752;51.056;17.056;2023-06-22T08:16:28;11.43;;;10.40;;
62687;SDS011;48752;51.056;17.056;2023-06-22T08:18:53;11.90;;;10.73;;
62687;SDS011;48752;51.056;17.056;2023-06-22T08:21:19;10.43;;;9.50;;
62687;SDS011;48752;51.056;17.056;2023-06-22T08:23:45;10.07;;;9.18;;
62687;SDS011;48752;51.056;17.056;2023-06-22T08:26:11;10.95;;;10.05;;
62687;SDS011;48752;51.056;17.056;2023-06-22T08:28:37;11.33;;;10.20;;
62687;SDS011;48752;51.056;17.056;2023-06-22T08:31:03;10.57;;;9.57;;
62687;SDS011;48752;51.056;17.056;2023-06-22T08:33:30;12.45;;;9.88;;
62687;SDS011;48752;51.056;17.056;2023-06-22T08:35:56;11.60;;;10.40;;
62687;SDS011;48752;51.056;17.056;2023-06-22T08:38:21;10.40;;;9.48;;
62687;SDS011;48752;51.056;17.056;2023-06-22T08:40:47;10.00;;;9.10;;
62687;SDS011;48752;51.056;17.056;2023-06-22T08:43:13;10.73;;;9.52;;
62687;SDS011;48752;51.056;17.056;2023-06-22T08:45:38;11.02;;;10.05;;
62687;SDS011;48752;51.056;17.056;2023-06-22T08:48:04;11.40;;;10.33;;
62687;SDS011;48752;51.056;17.056;2023-06-22T08:50:30;11.45;;;10.45;;
62687;SDS011;48752;51.056;17.056;2023-06-22T08:52:55;10.50;;;9.18;;
62687;SDS011;48752;51.056;17.056;2023-06-22T08:55:21;11.17;;;10.17;;
62687;SDS011;48752;51.056;17.056;2023-06-22T08:57:46;11.48;;;10.38;;
62687;SDS011;48752;51.056;17.056;2023-06-22T09:00:11;10.97;;;9.97;;
62687;SDS011;48752;51.056;17.056;2023-06-22T09:02:44;10.57;;;9.52;;
62687;SDS011;48752;51.056;17.056;2023-06-22T09:05:25;11.85;;;10.32;;
62687;SDS011;48752;51.056;17.056;2023-06-22T09:10:30;11.40;;;9.30;;
62687;SDS011;48752;51.056;17.056;2023-06-22T09:15:25;10.65;;;9.65;;
62687;SDS011;48752;51.056;17.056;2023-06-22T09:17:50;11.13;;;9.00;;
62687;SDS011;48752;51.056;17.056;2023-06-22T09:20:22;9.75;;;8.95;;
62687;SDS011;48752;51.056;17.056;2023-06-22T09:22:49;9.98;;;9.00;;
62687;SDS011;48752;51.056;17.056;2023-06-22T09:25:15;10.80;;;9.80;;
62687;SDS011;48752;51.056;17.056;2023-06-22T09:27:40;12.45;;;10.63;;
62687;SDS011;48752;51.056;17.056;2023-06-22T09:30:05;10.30;;;9.27;;
62687;SDS011;48752;51.056;17.056;2023-06-22T09:32:32;11.00;;;9.88;;
62687;SDS011;48752;51.056;17.056;2023-06-22T09:34:57;11.00;;;9.73;;
62687;SDS011;48752;51.056;17.056;2023-06-22T09:37:23;10.77;;;9.67;;
62687;SDS011;48752;51.056;17.056;2023-06-22T09:39:48;10.43;;;9.40;;
62687;SDS011;48752;51.056;17.056;2023-06-22T09:42:14;9.63;;;8.73;;
62687;SDS011;48752;51.056;17.056;2023-06-22T09:44:41;9.63;;;8.63;;
62687;SDS011;48752;51.056;17.056;2023-06-22T09:47:07;9.43;;;8.63;;
62687;SDS011;48752;51.056;17.056;2023-06-22T09:49:34;9.95;;;8.95;;
62687;SDS011;48752;51.056;17.056;2023-06-22T09:52:00;10.75;;;9.65;;
62687;SDS011;48752;51.056;17.056;2023-06-22T09:54:26;10.68;;;9.68;;
62687;SDS011;48752;51.056;17.056;2023-06-22T09:56:51;9.90;;;8.90;;
62687;SDS011;48752;51.056;17.056;2023-06-22T09:59:18;9.52;;;8.18;;
62687;SDS011;48752;51.056;17.056;2023-06-22T10:01:52;9.63;;;8.63;;
62687;SDS011;48752;51.056;17.056;2023-06-22T10:04:19;9.73;;;8.82;;
62687;SDS011;48752;51.056;17.056;2023-06-22T10:06:45;8.38;;;7.68;;
62687;SDS011;48752;51.056;17.056;2023-06-22T10:09:10;9.27;;;8.38;;
62687;SDS011;48752;51.056;17.056;2023-06-22T10:11:37;9.60;;;7.37;;
62687;SDS011;48752;51.056;17.056;2023-06-22T10:14:03;9.27;;;8.35;;
62687;SDS011;48752;51.056;17.056;2023-06-22T10:16:33;8.88;;;7.97;;
62687;SDS011;48752;51.056;17.056;2023-06-22T10:19:06;10.38;;;7.88;;
62687;SDS011;48752;51.056;17.056;2023-06-22T10:21:32;9.07;;;8.18;;
62687;SDS011;48752;51.056;17.056;2023-06-22T10:23:58;8.98;;;8.10;;
62687;SDS011;48752;51.056;17.056;2023-06-22T10:26:26;9.63;;;8.52;;
62687;SDS011;48752;51.056;17.056;2023-06-22T10:28:55;9.35;;;8.52;;
62687;SDS011;48752;51.056;17.056;2023-06-22T10:31:21;10.13;;;7.68;;
62687;SDS011;48752;51.056;17.056;2023-06-22T10:33:47;9.23;;;8.13;;
62687;SDS011;48752;51.056;17.056;2023-06-22T10:36:15;8.90;;;8.00;;
62687;SDS011;48752;51.056;17.056;2023-06-22T10:38:40;9.77;;;7.90;;
62687;SDS011;48752;51.056;17.056;2023-06-22T10:41:05;9.53;;;7.90;;
62687;SDS011;48752;51.056;17.056;2023-06-22T10:43:33;8.73;;;7.82;;
62687;SDS011;48752;51.056;17.056;2023-06-22T10:45:58;11.63;;;8.63;;
62687;SDS011;48752;51.056;17.056;2023-06-22T10:48:24;8.65;;;7.65;;
62687;SDS011;48752;51.056;17.056;2023-06-22T10:50:49;9.30;;;7.43;;
62687;SDS011;48752;51.056;17.056;2023-06-22T10:53:15;9.20;;;8.40;;
62687;SDS011;48752;51.056;17.056;2023-06-22T10:55:40;8.95;;;7.35;;
62687;SDS011;48752;51.056;17.056;2023-06-22T10:58:07;10.80;;;7.30;;
62687;SDS011;48752;51.056;17.056;2023-06-22T11:00:34;8.18;;;7.43;;
62687;SDS011;48752;51.056;17.056;2023-06-22T11:02:59;9.27;;;8.27;;
62687;SDS011;48752;51.056;17.056;2023-06-22T11:05:25;8.03;;;7.17;;
62687;SDS011;48752;51.056;17.056;2023-06-22T11:07:50;8.43;;;7.43;;
62687;SDS011;48752;51.056;17.056;2023-06-22T11:10:16;11.15;;;7.10;;
62687;SDS011;48752;51.056;17.056;2023-06-22T11:12:41;8.13;;;7.30;;
62687;SDS011;48752;51.056;17.056;2023-06-22T11:15:08;9.52;;;7.20;;
62687;SDS011;48752;51.056;17.056;2023-06-22T11:17:34;7.78;;;6.75;;
62687;SDS011;48752;51.056;17.056;2023-06-22T11:20:02;9.85;;;7.57;;
62687;SDS011;48752;51.056;17.056;2023-06-22T11:22:36;8.52;;;7.70;;
62687;SDS011;48752;51.056;17.056;2023-06-22T11:25:16;11.40;;;7.93;;
62687;SDS011;48752;51.056;17.056;2023-06-22T11:27:42;8.32;;;7.32;;
62687;SDS011;48752;51.056;17.056;2023-06-22T11:30:08;10.55;;;7.80;;
62687;SDS011;48752;51.056;17.056;2023-06-22T11:32:33;9.57;;;7.63;;
62687;SDS011;48752;51.056;17.056;2023-06-22T11:34:59;8.32;;;7.53;;
62687;SDS011;48752;51.056;17.056;2023-06-22T11:37:25;8.50;;;6.85;;
62687;SDS011;48752;51.056;17.056;2023-06-22T11:39:51;8.15;;;7.20;;
62687;SDS011;48752;51.056;17.056;2023-06-22T11:42:17;11.65;;;8.23;;
62687;SDS011;48752;51.056;17.056;2023-06-22T11:44:44;8.30;;;7.50;;
62687;SDS011;48752;51.056;17.056;2023-06-22T11:47:10;8.75;;;7.20;;
62687;SDS011;48752;51.056;17.056;2023-06-22T11:49:38;8.07;;;7.28;;
62687;SDS011;48752;51.056;17.056;2023-06-22T11:52:03;9.25;;;7.43;;
62687;SDS011;48752;51.056;17.056;2023-06-22T11:54:30;8.27;;;6.60;;
62687;SDS011;48752;51.056;17.056;2023-06-22T11:56:56;7.07;;;6.30;;
62687;SDS011;48752;51.056;17.056;2023-06-22T11:59:22;7.00;;;6.40;;
62687;SDS011;48752;51.056;17.056;2023-06-22T12:01:48;7.38;;;6.28;;
62687;SDS011;48752;51.056;17.056;2023-06-22T12:04:16;6.82;;;5.85;;
62687;SDS011;48752;51.056;17.056;2023-06-22T12:06:42;6.60;;;5.75;;
62687;SDS011;48752;51.056;17.056;2023-06-22T12:11:55;6.53;;;5.93;;
62687;SDS011;48752;51.056;17.056;2023-06-22T12:14:21;7.20;;;6.50;;
62687;SDS011;48752;51.056;17.056;2023-06-22T12:16:46;7.78;;;6.22;;
62687;SDS011;48752;51.056;17.056;2023-06-22T12:19:12;7.07;;;6.30;;
62687;SDS011;48752;51.056;17.056;2023-06-22T12:21:38;7.75;;;6.45;;
62687;SDS011;48752;51.056;17.056;2023-06-22T12:24:06;6.90;;;6.20;;
62687;SDS011;48752;51.056;17.056;2023-06-22T12:26:33;9.13;;;5.93;;
62687;SDS011;48752;51.056;17.056;2023-06-22T12:29:00;6.25;;;5.57;;
62687;SDS011;48752;51.056;17.056;2023-06-22T12:31:25;6.47;;;5.30;;
62687;SDS011;48752;51.056;17.056;2023-06-22T12:33:51;8.37;;;6.77;;
62687;SDS011;48752;51.056;17.056;2023-06-22T12:36:16;6.27;;;5.40;;
62687;SDS011;48752;51.056;17.056;2023-06-22T12:38:41;8.32;;;5.47;;
62687;SDS011;48752;51.056;17.056;2023-06-22T12:41:12;6.05;;;5.55;;
62687;SDS011;48752;51.056;17.056;2023-06-22T12:43:44;5.70;;;5.20;;
62687;SDS011;48752;51.056;17.056;2023-06-22T12:46:09;7.22;;;5.25;;
62687;SDS011;48752;51.056;17.056;2023-06-22T12:48:36;5.78;;;5.28;;
62687;SDS011;48752;51.056;17.056;2023-06-22T12:51:06;7.55;;;5.45;;
62687;SDS011;48752;51.056;17.056;2023-06-22T12:53:33;5.30;;;4.80;;
62687;SDS011;48752;51.056;17.056;2023-06-22T12:55:58;5.65;;;4.85;;
62687;SDS011;48752;51.056;17.056;2023-06-22T12:58:23;6.95;;;5.35;;
62687;SDS011;48752;51.056;17.056;2023-06-22T13:00:49;5.97;;;4.83;;
62687;SDS011;48752;51.056;17.056;2023-06-22T13:03:15;6.82;;;5.82;;
62687;SDS011;48752;51.056;17.056;2023-06-22T13:05:51;6.20;;;5.60;;
62687;SDS011;48752;51.056;17.056;2023-06-22T13:08:23;5.85;;;5.28;;
62687;SDS011;48752;51.056;17.056;2023-06-22T13:10:48;6.28;;;5.47;;
62687;SDS011;48752;51.056;17.056;2023-06-22T13:13:13;5.87;;;5.20;;
62687;SDS011;48752;51.056;17.056;2023-06-22T13:15:39;7.33;;;5.80;;
62687;SDS011;48752;51.056;17.056;2023-06-22T13:18:05;6.10;;;5.50;;
62687;SDS011;48752;51.056;17.056;2023-06-22T13:20:31;6.97;;;5.87;;
62687;SDS011;48752;51.056;17.056;2023-06-22T13:22:57;7.20;;;5.68;;
62687;SDS011;48752;51.056;17.056;2023-06-22T13:25:23;6.60;;;6.00;;
62687;SDS011;48752;51.056;17.056;2023-06-22T13:27:49;8.73;;;6.72;;
62687;SDS011;48752;51.056;17.056;2023-06-22T13:30:16;6.78;;;6.07;;
62687;SDS011;48752;51.056;17.056;2023-06-22T13:32:41;7.15;;;6.07;;
62687;SDS011;48752;51.056;17.056;2023-06-22T13:35:08;7.05;;;6.35;;
62687;SDS011;48752;51.056;17.056;2023-06-22T13:37:42;6.63;;;6.03;;
62687;SDS011;48752;51.056;17.056;2023-06-22T13:40:07;7.43;;;6.47;;
62687;SDS011;48752;51.056;17.056;2023-06-22T13:42:34;7.07;;;6.38;;
62687;SDS011;48752;51.056;17.056;2023-06-22T13:45:01;6.22;;;5.60;;
62687;SDS011;48752;51.056;17.056;2023-06-22T13:47:33;9.15;;;6.50;;
62687;SDS011;48752;51.056;17.056;2023-06-22T13:50:00;7.03;;;5.90;;
62687;SDS011;48752;51.056;17.056;2023-06-22T13:52:34;7.45;;;6.63;;
62687;SDS011;48752;51.056;17.056;2023-06-22T13:55:00;7.60;;;6.43;;
62687;SDS011;48752;51.056;17.056;2023-06-22T13:57:27;7.70;;;6.93;;
62687;SDS011;48752;51.056;17.056;2023-06-22T13:59:52;7.80;;;6.57;;
62687;SDS011;48752;51.056;17.056;2023-06-22T14:02:17;9.35;;;6.22;;
62687;SDS011;48752;51.056;17.056;2023-06-22T14:04:44;7.40;;;6.70;;
62687;SDS011;48752;51.056;17.056;2023-06-22T14:07:09;6.90;;;6.30;;
62687;SDS011;48752;51.056;17.056;2023-06-22T14:09:36;10.05;;;6.78;;
62687;SDS011;48752;51.056;17.056;2023-06-22T14:12:05;7.53;;;6.30;;
62687;SDS011;48752;51.056;17.056;2023-06-22T14:14:34;7.25;;;6.50;;
62687;SDS011;48752;51.056;17.056;2023-06-22T14:17:01;7.30;;;6.55;;
62687;SDS011;48752;51.056;17.056;2023-06-22T14:19:28;8.90;;;6.75;;
62687;SDS011;48752;51.056;17.056;2023-06-22T14:21:53;7.47;;;6.78;;
62687;SDS011;48752;51.056;17.056;2023-06-22T14:24:19;8.27;;;7.47;;
62687;SDS011;48752;51.056;17.056;2023-06-22T14:26:45;7.40;;;6.70;;
62687;SDS011;48752;51.056;17.056;2023-06-22T14:29:11;6.93;;;6.30;;
62687;SDS011;48752;51.056;17.056;2023-06-22T14:31:37;9.98;;;7.18;;
62687;SDS011;48752;51.056;17.056;2023-06-22T14:34:04;7.93;;;7.13;;